
Distance (Route):
Temperature : 15.2°C
Humidity : 39.6%
Pressure : 0hPa| Receiver | Frames | First received | Last received |
|---|---|---|---|
| LZ4TU-5 | 86 | 2026-09-03 05:36:37 | 2026-09-03 07:04:36 |
| Receiver | Date | Latitude | Longitude | Direction | Speed | Altitude | Climb | Temperature | Humidity | Pressure | Voltage | Killtimer | Uptime | BKT | XDATA |
|---|---|---|---|---|---|---|---|---|---|---|---|---|---|---|---|
| LZ4TU-5 | 2026-09-03 07:04:36 | 42.69879 | 23.91507 | 191° | 22km/h | 1760m | -17.5m/s | 15.2°C | 39.6% | 0hPa | 0V | 08:17:00 | 00:00:00 | 00:00:00 | |
| LZ4TU-5 | 2026-09-03 07:04:31 | 42.69902 | 23.91516 | 202° | 20km/h | 1849m | -18.1m/s | 14.5°C | 41.7% | 0hPa | 0V | 08:17:00 | 00:00:00 | 00:00:00 | |
| LZ4TU-5 | 2026-09-03 07:04:26 | 42.69923 | 23.91525 | 197° | 15km/h | 1936m | -17.1m/s | 13.8°C | 41.7% | 0hPa | 0V | 08:17:00 | 00:00:00 | 00:00:00 | |
| LZ4TU-5 | 2026-09-03 07:04:22 | 42.69937 | 23.91530 | 201° | 13km/h | 2003m | -16.9m/s | 13.4°C | 40.3% | 0hPa | 0V | 08:17:00 | 00:00:00 | 00:00:00 | |
| LZ4TU-5 | 2026-09-03 07:04:18 | 42.69949 | 23.91532 | 177° | 13km/h | 2070m | -16.7m/s | 12.9°C | 41.4% | 0hPa | 0V | 08:17:00 | 00:00:00 | 00:00:00 | |
| LZ4TU-5 | 2026-09-03 07:04:13 | 42.69968 | 23.91533 | 193° | 15km/h | 2153m | -17.1m/s | 12.2°C | 42.9% | 0hPa | 0V | 08:17:00 | 00:00:00 | 00:00:00 | |
| LZ4TU-5 | 2026-09-03 07:04:08 | 42.69986 | 23.91537 | 185° | 16km/h | 2237m | -16.4m/s | 11.5°C | 44.1% | 0hPa | 0V | 08:17:00 | 00:00:00 | 00:00:00 | |
| LZ4TU-5 | 2026-09-03 07:04:04 | 42.70003 | 23.91542 | 205° | 18km/h | 2304m | -17.0m/s | 10.9°C | 46.3% | 0hPa | 0V | 08:17:00 | 00:00:00 | 00:00:00 | |
| LZ4TU-5 | 2026-09-03 07:04:00 | 42.70019 | 23.91551 | 199° | 16km/h | 2371m | -16.5m/s | 10.3°C | 49.4% | 0hPa | 0V | 08:17:00 | 00:00:00 | 00:00:00 | |
| LZ4TU-5 | 2026-09-03 07:03:56 | 42.70037 | 23.91560 | 204° | 22km/h | 2437m | -16.5m/s | 9.8°C | 42.5% | 0hPa | 0V | 08:17:00 | 00:00:00 | 00:00:00 | |
| LZ4TU-5 | 2026-09-03 07:03:51 | 42.70060 | 23.91575 | 212° | 15km/h | 2521m | -16.7m/s | 9.3°C | 45.5% | 0hPa | 0V | 08:18:00 | 00:00:00 | 00:00:00 | |
| LZ4TU-5 | 2026-09-03 07:03:47 | 42.70073 | 23.91584 | 199° | 18km/h | 2587m | -17.0m/s | 8.7°C | 54.3% | 0hPa | 0V | 08:18:00 | 00:00:00 | 00:00:00 | |
| LZ4TU-5 | 2026-09-03 07:03:42 | 42.70095 | 23.91596 | 206° | 16km/h | 2671m | -16.8m/s | 7.8°C | 61.6% | 0hPa | 0V | 08:18:00 | 00:00:00 | 00:00:00 | |
| LZ4TU-5 | 2026-09-03 07:03:37 | 42.70116 | 23.91603 | 189° | 20km/h | 2755m | -17.1m/s | 7.0°C | 64.7% | 0hPa | 0V | 08:18:00 | 00:00:00 | 00:00:00 | |
| LZ4TU-5 | 2026-09-03 07:03:33 | 42.70135 | 23.91608 | 186° | 18km/h | 2823m | -17.2m/s | 6.4°C | 67.0% | 0hPa | 0V | 08:18:00 | 00:00:00 | 00:00:00 | |
| LZ4TU-5 | 2026-09-03 07:03:28 | 42.70158 | 23.91610 | 174° | 18km/h | 2908m | -16.8m/s | 5.8°C | 70.4% | 0hPa | 0V | 08:18:00 | 00:00:00 | 00:00:00 | |
| LZ4TU-5 | 2026-09-03 07:03:24 | 42.70174 | 23.91605 | 173° | 16km/h | 2974m | -16.9m/s | 5.2°C | 73.6% | 0hPa | 0V | 08:18:00 | 00:00:00 | 00:00:00 | |
| LZ4TU-5 | 2026-09-03 07:03:19 | 42.70192 | 23.91598 | 170° | 15km/h | 3058m | -17.0m/s | 4.4°C | 78.0% | 0hPa | 0V | 08:18:00 | 00:00:00 | 00:00:00 | |
| LZ4TU-5 | 2026-09-03 07:03:14 | 42.70210 | 23.91591 | 168° | 16km/h | 3143m | -17.2m/s | 3.7°C | 77.9% | 0hPa | 0V | 08:18:00 | 00:00:00 | 00:00:00 | |
| LZ4TU-5 | 2026-09-03 07:03:10 | 42.70226 | 23.91584 | 166° | 15km/h | 3211m | -17.0m/s | 3.1°C | 78.7% | 0hPa | 0V | 08:18:00 | 00:00:00 | 00:00:00 | |
| LZ4TU-5 | 2026-09-03 07:03:05 | 42.70246 | 23.91579 | 184° | 20km/h | 3295m | -16.8m/s | 2.7°C | 66.3% | 0hPa | 0V | 08:18:00 | 00:00:00 | 00:00:00 | |
| LZ4TU-5 | 2026-09-03 07:03:01 | 42.70266 | 23.91580 | 191° | 18km/h | 3359m | -16.4m/s | 2.6°C | 52.0% | 0hPa | 0V | 08:18:00 | 00:00:00 | 00:00:00 | |
| LZ4TU-5 | 2026-09-03 07:02:56 | 42.70289 | 23.91591 | 210° | 15km/h | 3439m | -16.3m/s | 2.3°C | 43.5% | 0hPa | 0V | 00:00:00 | 00:00:00 | 00:00:00 | |
| LZ4TU-5 | 2026-09-03 07:02:51 | 42.70305 | 23.91603 | 220° | 15km/h | 3520m | -16.6m/s | 1.7°C | 51.9% | 0hPa | 0V | 00:00:00 | 00:00:00 | 00:00:00 | |
| LZ4TU-5 | 2026-09-03 07:02:47 | 42.70315 | 23.91614 | 235° | 9km/h | 3586m | -16.7m/s | 1.1°C | 53.2% | 0hPa | 0V | 00:00:00 | 00:00:00 | 00:00:00 | |
| LZ4TU-5 | 2026-09-03 07:02:42 | 42.70321 | 23.91625 | 246° | 7km/h | 3670m | -16.9m/s | 0.5°C | 51.3% | 0hPa | 0V | 00:00:00 | 00:00:00 | 00:00:00 | |
| LZ4TU-5 | 2026-09-03 07:02:38 | 42.70323 | 23.91631 | 239° | 7km/h | 3737m | -17.1m/s | 0.2°C | 42.7% | 0hPa | 0V | 00:00:00 | 00:00:00 | 00:00:00 | |
| LZ4TU-5 | 2026-09-03 07:02:34 | 42.70326 | 23.91637 | 250° | 5km/h | 3805m | -17.2m/s | -0.3°C | 45.5% | 0hPa | 0V | 00:00:00 | 00:00:00 | 00:00:00 | |
| LZ4TU-5 | 2026-09-03 07:02:30 | 42.70331 | 23.91645 | 216° | 11km/h | 3875m | -17.5m/s | -0.3°C | 24.1% | 0hPa | 0V | 00:00:00 | 00:00:00 | 00:00:00 | |
| LZ4TU-5 | 2026-09-03 07:02:25 | 42.70339 | 23.91655 | 220° | 7km/h | 3963m | -18.2m/s | -0.8°C | 23.2% | 0hPa | 0V | 00:00:00 | 00:00:00 | 00:00:00 | |
| LZ4TU-5 | 2026-09-03 07:02:20 | 42.70349 | 23.91666 | 218° | 11km/h | 4054m | -17.8m/s | -1.6°C | 41.1% | 0hPa | 0V | 00:00:00 | 00:00:00 | 00:00:00 | |
| LZ4TU-5 | 2026-09-03 07:02:16 | 42.70363 | 23.91676 | 202° | 15km/h | 4124m | -17.0m/s | -2.0°C | 42.8% | 0hPa | 0V | 00:00:00 | 00:00:00 | 00:00:00 | |
| LZ4TU-5 | 2026-09-03 07:02:11 | 42.70378 | 23.91685 | 209° | 13km/h | 4208m | -17.0m/s | -2.3°C | 0% | 0hPa | 0V | 00:00:00 | 00:00:00 | 00:00:00 | |
| LZ4TU-5 | 2026-09-03 07:00:31 | 42.70614 | 23.91135 | 94° | 18km/h | 5987m | -18.8m/s | -14.5°C | 34.7% | 0hPa | 0V | 08:21:00 | 00:00:00 | 00:00:00 | |
| LZ4TU-5 | 2026-09-03 07:00:26 | 42.70621 | 23.91103 | 116° | 18km/h | 6075m | -18.6m/s | -15.3°C | 34.7% | 0hPa | 0V | 00:00:00 | 00:00:00 | 00:00:00 | |
| LZ4TU-5 | 2026-09-03 06:59:02 | 42.70811 | 23.90262 | 98° | 40km/h | 7969m | -27.4m/s | -29.2°C | 22.9% | 0hPa | 0V | 00:00:00 | 00:00:00 | 00:00:00 | |
| LZ4TU-5 | 2026-09-03 06:58:58 | 42.70814 | 23.90209 | 93° | 40km/h | 8078m | -27.2m/s | -29.6°C | 18.8% | 0hPa | 0V | 00:00:00 | 00:00:00 | 00:00:00 | |
| LZ4TU-5 | 2026-09-03 06:57:37 | 42.70648 | 23.88841 | 78° | 53km/h | 10232m | -29.4m/s | -46.9°C | 21.1% | 0hPa | 0V | 00:00:00 | 00:00:00 | 00:00:00 | |
| LZ4TU-5 | 2026-09-03 06:57:32 | 42.70626 | 23.88749 | 67° | 58km/h | 10377m | -29.0m/s | -47.9°C | 20.6% | 0hPa | 0V | 00:00:00 | 00:00:00 | 00:00:00 | |
| LZ4TU-5 | 2026-09-03 06:56:05 | 42.69968 | 23.86700 | 75° | 78km/h | 13089m | -34.3m/s | -53.3°C | 2.5% | 0hPa | 0V | 00:00:00 | 00:00:00 | 00:00:00 | |
| LZ4TU-5 | 2026-09-03 06:56:00 | 42.69948 | 23.86577 | 77° | 69km/h | 13272m | -35.4m/s | -53.7°C | 2.1% | 0hPa | 0V | 00:00:00 | 00:00:00 | 00:00:00 | |
| LZ4TU-5 | 2026-09-03 06:54:30 | 42.69627 | 23.84596 | 88° | 46km/h | 16703m | -42.5m/s | -57.2°C | 1.6% | 0hPa | 0V | 00:00:00 | 00:00:00 | 00:00:00 | |
| LZ4TU-5 | 2026-09-03 06:54:26 | 42.69621 | 23.84537 | 85° | 40km/h | 16881m | -44.9m/s | -56.8°C | 1.2% | 0hPa | 0V | 00:00:00 | 00:00:00 | 00:00:00 | |
| LZ4TU-5 | 2026-09-03 06:50:58 | 42.69718 | 23.84176 | 52° | 2km/h | 27536m | 6.3m/s | -46.5°C | 0.7% | 0hPa | 0V | 00:00:00 | 00:00:00 | 00:00:00 | |
| LZ4TU-5 | 2026-09-03 06:50:54 | 42.69719 | 23.84176 | 160° | 4km/h | 27512m | 5.9m/s | -46.4°C | 0.6% | 0hPa | 0V | 00:00:00 | 00:00:00 | 00:00:00 | |
| LZ4TU-5 | 2026-09-03 06:48:29 | 42.69253 | 23.84420 | 300° | 35km/h | 26628m | 6.5m/s | -48.1°C | 0.7% | 0hPa | 0V | 00:00:00 | 00:00:00 | 00:00:00 | |
| LZ4TU-5 | 2026-09-03 06:48:24 | 42.69238 | 23.84479 | 288° | 37km/h | 26598m | 7.1m/s | -48.0°C | 0.7% | 0hPa | 0V | 00:00:00 | 00:00:00 | 00:00:00 | |
| LZ4TU-5 | 2026-09-03 06:44:58 | 42.69708 | 23.85628 | 219° | 11km/h | 25375m | 5.2m/s | -49.0°C | 0.8% | 0hPa | 0V | 00:00:00 | 00:00:00 | 00:00:00 | |
| LZ4TU-5 | 2026-09-03 06:44:53 | 42.69717 | 23.85648 | 287° | 15km/h | 25345m | 5.4m/s | -48.8°C | 0.8% | 0hPa | 0V | 00:00:00 | 00:00:00 | 00:00:00 | |
| LZ4TU-5 | 2026-09-03 06:41:52 | 42.69786 | 23.86276 | 254° | 7km/h | 24251m | 5.0m/s | -51.5°C | 0.9% | 0hPa | 0V | 00:00:00 | 00:00:00 | 00:00:00 | |
| LZ4TU-5 | 2026-09-03 06:41:48 | 42.69790 | 23.86284 | 233° | 13km/h | 24226m | 6.2m/s | 0°C | 0% | 0hPa | 0V | 00:00:00 | 00:00:00 | 00:00:00 | |
| LZ4TU-5 | 2026-09-03 06:39:39 | 42.69768 | 23.86491 | 251° | 22km/h | 23437m | 7.6m/s | 0°C | 0% | 0hPa | 0V | 00:00:00 | 00:00:00 | 00:00:00 | |
| LZ4TU-5 | 2026-09-03 06:39:35 | 42.69781 | 23.86513 | 216° | 24km/h | 23411m | 5.1m/s | 0°C | 0% | 0hPa | 0V | 00:00:00 | 00:00:00 | 00:00:00 | |
| LZ4TU-5 | 2026-09-03 06:36:08 | 42.69890 | 23.86682 | 84° | 7km/h | 22201m | 6.1m/s | 0°C | 0% | 0hPa | 0V | 00:00:00 | 00:00:00 | 00:00:00 | |
| LZ4TU-5 | 2026-09-03 06:36:03 | 42.69891 | 23.86669 | 129° | 7km/h | 22170m | 7.0m/s | 0°C | 0% | 0hPa | 0V | 00:00:00 | 00:00:00 | 00:00:00 | |
| LZ4TU-5 | 2026-09-03 06:26:09 | 42.70231 | 23.85012 | 139° | 37km/h | 18798m | 5.4m/s | 0°C | 0% | 0hPa | 0V | 00:00:00 | 00:00:00 | 00:00:00 | |
| LZ4TU-5 | 2026-09-03 06:23:48 | 42.70378 | 23.83669 | 112° | 29km/h | 18019m | 4.8m/s | 0°C | 0% | 0hPa | 0V | 00:00:00 | 00:00:00 | 00:00:00 | |
| LZ4TU-5 | 2026-09-03 06:23:43 | 42.70399 | 23.83615 | 123° | 38km/h | 17991m | 5.0m/s | 0°C | 0% | 0hPa | 0V | 00:00:00 | 00:00:00 | 00:00:00 | |
| LZ4TU-5 | 2026-09-03 06:19:01 | 42.70264 | 23.79347 | 88° | 58km/h | 16531m | 3.3m/s | 0°C | 0% | 0hPa | 0V | 00:00:00 | 00:00:00 | 00:00:00 | |
| LZ4TU-5 | 2026-09-03 06:18:56 | 42.70259 | 23.79242 | 88° | 62km/h | 16508m | 4.6m/s | 0°C | 0% | 0hPa | 0V | 00:00:00 | 00:00:00 | 00:00:00 | |
| LZ4TU-5 | 2026-09-03 06:17:25 | 42.69952 | 23.77423 | 69° | 53km/h | 16059m | 5.7m/s | 0°C | 0% | 0hPa | 0V | 00:00:00 | 00:00:00 | 00:00:00 | |
| LZ4TU-5 | 2026-09-03 06:17:21 | 42.69933 | 23.77352 | 76° | 58km/h | 16039m | 4.6m/s | 0°C | 0% | 0hPa | 0V | 00:00:00 | 00:00:00 | 00:00:00 | |
| LZ4TU-5 | 2026-09-03 06:15:45 | 42.69618 | 23.75370 | 81° | 73km/h | 15546m | 4.5m/s | 0°C | 0% | 0hPa | 0V | 00:00:00 | 00:00:00 | 00:00:00 | |
| LZ4TU-5 | 2026-09-03 06:15:40 | 42.69599 | 23.75253 | 79° | 66km/h | 15521m | 4.7m/s | 0°C | 0% | 0hPa | 0V | 00:00:00 | 00:00:00 | 00:00:00 | |
| LZ4TU-5 | 2026-09-03 06:13:57 | 42.69237 | 23.73301 | 86° | 64km/h | 14969m | 4.1m/s | 0°C | 0% | 0hPa | 0V | 00:00:00 | 00:00:00 | 00:00:00 | |
| LZ4TU-5 | 2026-09-03 06:13:52 | 42.69231 | 23.73186 | 87° | 68km/h | 14942m | 4.5m/s | 0°C | 0% | 0hPa | 0V | 00:00:00 | 00:00:00 | 00:00:00 | |
| LZ4TU-5 | 2026-09-03 06:12:19 | 42.68955 | 23.70873 | 79° | 71km/h | 14462m | 5.6m/s | 0°C | 0% | 0hPa | 0V | 00:00:00 | 00:00:00 | 00:00:00 | |
| LZ4TU-5 | 2026-09-03 06:12:14 | 42.68936 | 23.70753 | 76° | 73km/h | 14439m | 4.0m/s | 0°C | 0% | 0hPa | 0V | 00:00:00 | 00:00:00 | 00:00:00 | |
| LZ4TU-5 | 2026-09-03 06:10:16 | 42.68488 | 23.67768 | 76° | 80km/h | 13891m | 5.0m/s | 0°C | 0% | 0hPa | 0V | 00:00:00 | 00:00:00 | 00:00:00 | |
| LZ4TU-5 | 2026-09-03 06:10:11 | 42.68465 | 23.67633 | 77° | 84km/h | 13869m | 4.4m/s | 0°C | 0% | 0hPa | 0V | 00:00:00 | 00:00:00 | 00:00:00 | |
| LZ4TU-5 | 2026-09-03 06:07:16 | 42.67599 | 23.63043 | 79° | 82km/h | 13023m | 3.9m/s | 0°C | 0% | 0hPa | 0V | 00:00:00 | 00:00:00 | 00:00:00 | |
| LZ4TU-5 | 2026-09-03 06:07:12 | 42.67582 | 23.62931 | 78° | 80km/h | 13003m | 3.5m/s | 0°C | 0% | 0hPa | 0V | 00:00:00 | 00:00:00 | 00:00:00 | |
| LZ4TU-5 | 2026-09-03 05:51:58 | 42.62649 | 23.43615 | 77° | 31km/h | 7946m | 6.7m/s | 0°C | 0% | 0hPa | 0V | 00:00:00 | 00:00:00 | 00:00:00 | |
| LZ4TU-5 | 2026-09-03 05:51:54 | 42.62644 | 23.43569 | 86° | 37km/h | 7923m | 7.5m/s | 0°C | 0% | 0hPa | 0V | 00:00:00 | 00:00:00 | 00:00:00 | |
| LZ4TU-5 | 2026-09-03 05:49:26 | 42.62817 | 23.42074 | 94° | 31km/h | 7076m | 4.7m/s | 0°C | 0% | 0hPa | 0V | 00:00:00 | 00:00:00 | 00:00:00 | |
| LZ4TU-5 | 2026-09-03 05:49:22 | 42.62824 | 23.42031 | 118° | 31km/h | 7058m | 4.3m/s | 0°C | 0% | 0hPa | 0V | 00:00:00 | 00:00:00 | 00:00:00 | |
| LZ4TU-5 | 2026-09-03 05:47:22 | 42.63155 | 23.40513 | 117° | 29km/h | 6387m | 4.2m/s | 0°C | 0% | 0hPa | 0V | 00:00:00 | 00:00:00 | 00:00:00 | |
| LZ4TU-5 | 2026-09-03 05:47:18 | 42.63173 | 23.40487 | 146° | 31km/h | 6363m | 5.1m/s | 0°C | 0% | 0hPa | 0V | 00:00:00 | 00:00:00 | 00:00:00 | |
| LZ4TU-5 | 2026-09-03 05:42:52 | 42.63626 | 23.38559 | 136° | 22km/h | 4814m | 4.9m/s | 0°C | 0% | 0hPa | 0V | 00:00:00 | 00:00:00 | 00:00:00 | |
| LZ4TU-5 | 2026-09-03 05:42:47 | 42.63642 | 23.38536 | 116° | 24km/h | 4795m | 3.3m/s | 0°C | 0% | 0hPa | 0V | 00:00:00 | 00:00:00 | 00:00:00 | |
| LZ4TU-5 | 2026-09-03 05:40:54 | 42.64087 | 23.38127 | 145° | 18km/h | 4128m | 6.0m/s | 0°C | 0% | 0hPa | 0V | 00:00:00 | 00:00:00 | 00:00:00 | |
| LZ4TU-5 | 2026-09-03 05:40:49 | 42.64098 | 23.38106 | 109° | 22km/h | 4106m | 7.4m/s | 0°C | 0% | 0hPa | 0V | 00:00:00 | 00:00:00 | 00:00:00 | |
| LZ4TU-5 | 2026-09-03 05:39:24 | 42.64445 | 23.37644 | 150° | 22km/h | 3623m | 5.8m/s | 0°C | 0% | 0hPa | 0V | 00:00:00 | 00:00:00 | 00:00:00 | |
| LZ4TU-5 | 2026-09-03 05:39:20 | 42.64469 | 23.37632 | 174° | 27km/h | 3598m | 6.6m/s | 0°C | 0% | 0hPa | 0V | 00:00:00 | 00:00:00 | 00:00:00 | |
| LZ4TU-5 | 2026-09-03 05:37:57 | 42.64913 | 23.37545 | 166° | 16km/h | 3137m | 5.7m/s | 0°C | 0% | 0hPa | 0V | 00:00:00 | 00:00:00 | 00:00:00 | |
| LZ4TU-5 | 2026-09-03 05:36:37 | 42.65223 | 23.37693 | 244° | 7km/h | 2675m | 4.7m/s | 0°C | 0% | 0hPa | 0V | 00:00:00 | 00:00:00 | 00:00:00 |